Time;durP1;ratioP1;P1;durP2;ratioP2;P2;SDS_P1;SDS_P2;PMS_P1;PMS_P2;Temp;Humidity;BMP_temperature;BMP_pressure;BME280_temperature;BME280_humidity;BME280_pressure;Samples;Min_cycle;Max_cycle;Signal;HPM_P1;HPM_P2
2022/05/01 00:03:06;;;;;;;21.90;16.30;;;;;;;;;;5093059;28;20437;-92
2022/05/01 00:05:34;;;;;;;19.90;15.87;;;;;;;;;;5094873;28;20481;-93
2022/05/01 00:08:04;;;;;;;24.00;17.77;;;;;;;;;;5092766;28;21009;-94
2022/05/01 00:10:31;;;;;;;27.77;19.10;;;;;;;;;;5093385;28;20446;-96
2022/05/01 00:13:03;;;;;;;26.97;20.47;;;;;;;;;;5096090;28;20440;-96
2022/05/01 00:15:30;;;;;;;24.90;18.30;;;;;;;;;;5096760;28;20453;-93
2022/05/01 00:17:57;;;;;;;29.03;21.17;;;;;;;;;;5097641;28;20452;-92
2022/05/01 00:20:25;;;;;;;31.37;21.50;;;;;;;;;;5098643;28;20468;-94
2022/05/01 00:22:55;;;;;;;33.13;20.33;;;;;;;;;;5103993;28;20954;-92
2022/05/01 00:25:22;;;;;;;31.83;21.87;;;;;;;;;;5105101;28;20551;-92
2022/05/01 00:27:52;;;;;;;31.47;21.60;;;8.80;99.90;;;;;;5099760;28;20463;-92
2022/05/01 00:30:20;;;;;;;31.70;21.40;;;;;;;;;;5095410;28;20421;-93
2022/05/01 00:38:20;;;;;;;30.53;22.20;;;;;;;;;;5099276;28;20432;-92
2022/05/01 00:40:47;;;;;;;33.03;22.23;;;;;;;;;;5098470;28;20891;-93
2022/05/01 00:43:15;;;;;;;31.10;20.87;;;;;;;;;;5099531;28;20461;-94
2022/05/01 00:45:44;;;;;;;34.53;24.57;;;;;;;;;;5099272;28;20495;-92
2022/05/01 00:48:11;;;;;;;32.33;22.33;;;;;;;;;;5098929;28;20460;-93
2022/05/01 00:50:38;;;;;;;33.77;22.47;;;;;;;;;;5095148;28;20469;-91
2022/05/01 00:53:07;;;;;;;33.77;21.83;;;8.50;99.90;;;;;;5099173;28;20488;-92
2022/05/01 00:55:35;;;;;;;34.93;23.37;;;;;;;;;;5095723;28;20452;-91
2022/05/01 00:58:05;;;;;;;37.83;24.00;;;8.40;99.90;;;;;;5099494;28;20456;-94
2022/05/01 01:00:32;;;;;;;33.63;23.73;;;;;;;;;;5099668;28;20467;-91
2022/05/01 01:03:01;;;;;;;35.17;23.03;;;;;;;;;;5100011;28;20445;-93
2022/05/01 01:05:29;;;;;;;32.20;23.10;;;;;;;;;;5099592;28;20975;-92
2022/05/01 01:07:56;;;;;;;33.20;23.20;;;;;;;;;;5099975;28;20452;-92
2022/05/01 01:10:23;;;;;;;33.90;22.13;;;;;;;;;;5095103;28;20461;-92
2022/05/01 01:12:56;;;;;;;36.00;22.30;;;;;;;;;;5095220;28;20459;-94
2022/05/01 01:15:24;;;;;;;37.67;23.57;;;8.40;99.90;;;;;;5100591;28;20455;-93
2022/05/01 01:17:54;;;;;;;34.33;22.20;;;;;;;;;;5100264;28;20467;-93
2022/05/01 01:20:25;;;;;;;35.80;22.93;;;8.50;99.90;;;;;;5100091;28;20484;-92
2022/05/01 01:22:56;;;;;;;40.40;23.10;;;8.50;99.90;;;;;;5100785;28;20453;-93
2022/05/01 01:25:26;;;;;;;33.80;23.03;;;8.40;99.90;;;;;;5096457;28;20453;-94
2022/05/01 01:27:55;;;;;;;36.30;23.77;;;8.40;99.90;;;;;;5097537;28;20454;-94
2022/05/01 01:33:05;;;;;;;33.13;22.30;;;;;;;;;;5063239;28;20469;-94
2022/05/01 01:35:35;;;;;;;31.63;23.13;;;8.40;99.90;;;;;;5100394;28;20464;-94
2022/05/01 01:38:03;;;;;;;36.63;23.13;;;8.40;99.90;;;;;;5097256;28;20445;-93
2022/05/01 01:40:41;;;;;;;36.47;21.83;;;8.40;99.90;;;;;;5099754;28;20476;-93
2022/05/01 01:43:08;;;;;;;34.90;21.63;;;;;;;;;;5095851;28;20448;-94
2022/05/01 01:45:36;;;;;;;30.83;19.90;;;;;;;;;;5098814;28;20567;-93
2022/05/01 01:48:13;;;;;;;34.87;20.90;;;;;;;;;;5100286;28;20464;-94
2022/05/01 01:50:40;;;;;;;36.57;23.53;;;;;;;;;;5095621;28;20456;-94
2022/05/01 01:53:11;;;;;;;36.30;22.20;;;8.30;99.90;;;;;;5096066;28;20468;-94
2022/05/01 01:55:39;;;;;;;40.23;23.33;;;8.30;99.90;;;;;;5100141;28;20425;-93
2022/05/01 01:58:07;;;;;;;36.37;23.77;;;8.30;99.90;;;;;;5099706;28;20444;-95
2022/05/01 02:00:34;;;;;;;33.23;21.33;;;;;;;;;;5095089;28;20453;-93
2022/05/01 02:03:04;;;;;;;33.20;23.20;;;8.20;99.90;;;;;;5099347;28;20452;-95
2022/05/01 02:05:32;;;;;;;36.30;22.93;;;;;;;;;;5094506;28;20449;-93
2022/05/01 02:07:59;;;;;;;35.50;22.50;;;;;;;;;;5099546;28;20916;-92
2022/05/01 02:10:29;;;;;;;35.43;22.30;;;;;;;;;;5095577;28;20432;-93
2022/05/01 02:12:57;;;;;;;36.07;22.70;;;;;;;;;;5082500;28;20448;-93
2022/05/01 02:15:24;;;;;;;33.60;22.43;;;;;;;;;;5077968;28;20487;-92
2022/05/01 02:17:51;;;;;;;37.33;23.10;;;;;;;;;;5078378;28;20460;-93
2022/05/01 02:20:19;;;;;;;35.27;23.23;;;;;;;;;;5057298;28;21306;-91
2022/05/01 02:22:46;;;;;;;37.03;23.47;;;;;;;;;;5073975;28;20533;-94
2022/05/01 02:25:16;;;;;;;38.73;23.30;;;;;;;;;;5074752;28;20496;-93
2022/05/01 02:27:47;;;;;;;37.47;24.40;;;;;;;;;;5074588;28;20489;-92
2022/05/01 02:30:15;;;;;;;36.43;22.50;;;;;;;;;;5077926;28;20442;-93
2022/05/01 02:32:45;;;;;;;34.97;21.37;;;;;;;;;;5070862;28;20454;-92
2022/05/01 02:35:12;;;;;;;37.53;23.30;;;;;;;;;;5074685;28;20938;-92
2022/05/01 02:37:42;;;;;;;33.77;22.67;;;;;;;;;;5061233;28;20458;-93
2022/05/01 02:40:11;;;;;;;33.87;22.00;;;;;;;;;;5076771;28;20496;-93
2022/05/01 02:42:38;;;;;;;34.30;23.57;;;;;;;;;;5054595;28;20550;-92
2022/05/01 02:45:10;;;;;;;33.50;21.50;;;8.40;99.90;;;;;;5055261;28;20458;-93
2022/05/01 02:47:41;;;;;;;35.00;21.43;;;;;;;;;;5064805;28;20477;-93
2022/05/01 02:50:13;;;;;;;33.07;21.60;;;8.10;99.90;;;;;;5077093;28;20449;-92
2022/05/01 02:52:41;;;;;;;34.57;20.77;;;;;;;;;;5074960;28;20472;-93
2022/05/01 02:55:11;;;;;;;36.00;21.50;;;;;;;;;;5077711;28;20450;-91
2022/05/01 02:57:42;;;;;;;30.77;20.70;;;;;;;;;;5057528;28;20447;-92
2022/05/01 03:00:16;;;;;;;35.47;24.50;;;11.00;99.90;;;;;;5060553;28;20437;-93
2022/05/01 03:02:47;;;;;;;33.13;22.00;;;;;;;;;;5077762;28;21013;-92
2022/05/01 03:05:19;;;;;;;39.97;23.33;;;;;;;;;;5077566;28;20414;-92
2022/05/01 03:07:48;;;;;;;34.37;22.00;;;;;;;;;;5076400;28;20509;-91
2022/05/01 03:10:15;;;;;;;40.20;23.87;;;;;;;;;;5083228;28;20430;-93
2022/05/01 03:12:44;;;;;;;37.50;22.90;;;;;;;;;;5090267;28;20506;-92
2022/05/01 03:15:13;;;;;;;42.23;24.73;;;;;;;;;;5080606;28;20460;-92
2022/05/01 03:23:09;;;;;;;41.37;23.80;;;;;;;;;;5076832;28;20426;-93
2022/05/01 03:25:37;;;;;;;33.87;21.37;;;;;;;;;;5077209;28;20434;-93
2022/05/01 03:28:04;;;;;;;40.07;22.90;;;;;;;;;;5074298;28;20477;-93
2022/05/01 03:30:33;;;;;;;40.50;23.50;;;;;;;;;;5070298;28;20454;-92
2022/05/01 03:33:07;;;;;;;43.90;24.07;;;;;;;;;;5076764;28;20469;-93
2022/05/01 03:35:35;;;;;;;40.10;24.13;;;8.00;99.90;;;;;;5076647;28;20457;-92
2022/05/01 03:38:06;;;;;;;40.97;25.33;;;;;;;;;;5066309;28;20503;-93
2022/05/01 03:40:35;;;;;;;40.70;23.87;;;7.90;99.90;;;;;;5076656;28;20505;-92
2022/05/01 03:43:02;;;;;;;42.60;24.57;;;;;;;;;;5070233;28;20553;-94
2022/05/01 03:45:30;;;;;;;38.87;23.50;;;;;;;;;;5077770;28;20446;-92
2022/05/01 03:47:58;;;;;;;44.63;23.97;;;;;;;;;;5076593;28;20573;-91
2022/05/01 03:50:26;;;;;;;53.87;26.20;;;;;;;;;;5073917;28;20454;-92
2022/05/01 03:52:53;;;;;;;44.77;24.03;;;;;;;;;;5075308;28;20462;-92
2022/05/01 03:55:20;;;;;;;41.53;26.20;;;;;;;;;;5081025;28;20484;-93
2022/05/01 03:57:49;;;;;;;43.60;26.17;;;7.80;99.90;;;;;;5083580;28;20937;-92
2022/05/01 04:00:18;;;;;;;54.77;28.60;;;;;;;;;;5083545;28;20432;-91
2022/05/01 04:02:46;;;;;;;43.60;25.30;;;7.80;99.90;;;;;;5084729;28;20453;-93
2022/05/01 04:05:15;;;;;;;46.87;24.87;;;7.80;99.90;;;;;;5104433;28;20425;-95
2022/05/01 04:07:43;;;;;;;49.87;25.50;;;7.80;99.90;;;;;;5081677;28;20480;-93
2022/05/01 04:10:11;;;;;;;40.67;23.87;;;7.90;99.90;;;;;;5080671;28;20449;-94
2022/05/01 04:12:38;;;;;;;44.60;25.70;;;;;;;;;;5078819;28;20978;-93
2022/05/01 04:15:08;;;;;;;43.33;24.87;;;;;;;;;;5084140;28;20432;-93
2022/05/01 04:17:38;;;;;;;45.37;26.10;;;;;;;;;;5080863;28;20488;-93
2022/05/01 04:20:08;;;;;;;39.87;25.00;;;7.80;99.90;;;;;;5082905;28;20429;-93
2022/05/01 04:22:39;;;;;;;44.30;25.27;;;;;;;;;;5079984;28;20441;-95
2022/05/01 04:25:07;;;;;;;45.97;25.50;;;;;;;;;;5080232;28;20453;-94
2022/05/01 04:27:34;;;;;;;43.03;24.47;;;;;;;;;;5079688;28;20884;-93
2022/05/01 04:30:01;;;;;;;39.67;24.90;;;;;;;;;;5083113;28;20442;-93
2022/05/01 04:32:29;;;;;;;48.67;26.10;;;;;;;;;;5080355;28;20456;-93
2022/05/01 04:34:56;;;;;;;46.40;26.40;;;;;;;;;;5080424;28;20450;-95
2022/05/01 04:37:23;;;;;;;43.50;27.10;;;;;;;;;;5079553;28;20457;-92
2022/05/01 04:39:52;;;;;;;39.90;24.90;;;;;;;;;;5079801;28;20473;-94
2022/05/01 04:42:19;;;;;;;41.43;26.30;;;;;;;;;;5082961;28;20445;-92
2022/05/01 04:44:47;;;;;;;41.83;26.00;;;;;;;;;;5082505;28;20448;-93
2022/05/01 04:47:14;;;;;;;40.37;24.43;;;;;;;;;;5082561;28;20484;-94
2022/05/01 04:49:41;;;;;;;42.87;24.50;;;;;;;;;;5082794;28;20445;-93
2022/05/01 04:52:09;;;;;;;49.87;27.03;;;;;;;;;;5076234;28;20445;-95
2022/05/01 04:54:38;;;;;;;53.10;27.80;;;;;;;;;;5082312;28;20524;-94
2022/05/01 04:57:10;;;;;;;43.97;26.60;;;;;;;;;;5082658;28;20445;-93
2022/05/01 04:59:38;;;;;;;49.13;26.33;;;;;;;;;;5082548;28;20529;-92
2022/05/01 05:02:09;;;;;;;46.57;26.23;;;;;;;;;;5065792;28;20437;-93
2022/05/01 05:04:56;;;;;;;45.43;25.93;;;;;;;;;;5078499;28;20442;-93
2022/05/01 05:07:26;;;;;;;41.53;24.90;;;;;;;;;;5077763;28;20469;-91
2022/05/01 05:09:58;;;;;;;45.87;27.73;;;;;;;;;;5076112;28;20460;-93
2022/05/01 05:12:29;;;;;;;46.47;25.70;;;8.00;99.90;;;;;;5079101;28;20450;-94
2022/05/01 05:14:59;;;;;;;38.63;23.80;;;;;;;;;;5076224;28;20456;-92
2022/05/01 05:17:27;;;;;;;48.40;25.50;;;;;;;;;;5078989;28;20457;-94
2022/05/01 05:19:57;;;;;;;39.23;25.53;;;8.10;99.90;;;;;;5078528;28;20533;-93
2022/05/01 05:22:24;;;;;;;45.80;25.60;;;;;;;;;;5072745;28;20461;-92
2022/05/01 05:24:53;;;;;;;37.60;24.73;;;;;;;;;;5078079;28;20460;-93
2022/05/01 05:27:25;;;;;;;38.60;25.23;;;;;;;;;;5074259;28;20496;-92
2022/05/01 05:29:57;;;;;;;35.13;24.17;;;;;;;;;;5074986;28;20457;-95
2022/05/01 05:32:29;;;;;;;38.90;24.57;;;8.30;99.90;;;;;;5074568;28;20445;-92
2022/05/01 05:34:56;;;;;;;34.63;23.20;;;;;;;;;;5077818;28;20441;-93
2022/05/01 05:37:26;;;;;;;34.63;22.80;;;;;;;;;;5074208;28;20453;-93
2022/05/01 05:39:56;;;;;;;36.30;23.33;;;;;;;;;;5077600;28;20484;-94
2022/05/01 05:42:23;;;;;;;37.40;22.07;;;;;;;;;;5075336;28;20434;-94
2022/05/01 05:44:51;;;;;;;42.73;24.33;;;;;;;;;;5077651;28;20446;-93
2022/05/01 05:47:19;;;;;;;41.13;24.00;;;;;;;;;;5075161;28;20865;-93
2022/05/01 05:49:47;;;;;;;37.40;23.60;;;;;;;;;;5070037;28;20442;-93
2022/05/01 05:52:14;;;;;;;33.53;22.37;;;;;;;;;;5075401;28;20914;-94
2022/05/01 05:54:41;;;;;;;38.67;23.17;;;;;;;;;;5080179;28;20450;-96
2022/05/01 05:57:08;;;;;;;36.80;24.60;;;;;;;;;;5081380;28;20465;-95
2022/05/01 05:59:36;;;;;;;30.30;21.13;;;;;;;;;;5086942;28;20441;-93
2022/05/01 06:02:03;;;;;;;32.47;22.20;;;;;;;;;;5096171;28;20418;-93
2022/05/01 06:04:32;;;;;;;31.13;21.87;;;;;;;;;;5080364;28;20914;-95
2022/05/01 06:06:59;;;;;;;32.70;22.23;;;;;;;;;;5076974;28;20469;-92
2022/05/01 06:09:26;;;;;;;32.90;22.37;;;;;;;;;;5077367;28;20449;-92
2022/05/01 06:11:53;;;;;;;36.50;24.00;;;;;;;;;;5070166;28;20469;-92
2022/05/01 06:14:21;;;;;;;32.37;21.90;;;;;;;;;;5078148;28;20453;-95
2022/05/01 06:16:48;;;;;;;34.20;23.50;;;;;;;;;;5076992;28;20539;-92
2022/05/01 06:19:15;;;;;;;32.20;23.03;;;;;;;;;;5078194;28;20458;-91
2022/05/01 06:21:44;;;;;;;29.60;21.20;;;8.50;99.90;;;;;;5083078;28;20457;-92
2022/05/01 06:24:11;;;;;;;32.20;22.77;;;;;;;;;;5087171;23;20467;-90
2022/05/01 06:26:38;;;;;;;31.17;21.07;;;;;;;;;;5084276;28;20779;-92
2022/05/01 06:29:05;;;;;;;30.80;21.63;;;;;;;;;;5084824;28;20456;-90
2022/05/01 06:31:32;;;;;;;29.80;22.00;;;;;;;;;;5082925;28;20922;-90
2022/05/01 06:34:00;;;;;;;29.23;20.57;;;;;;;;;;5085221;28;20541;-93
2022/05/01 06:36:27;;;;;;;29.60;21.57;;;;;;;;;;5061662;28;20449;-92
2022/05/01 06:38:58;;;;;;;31.97;21.60;;;;;;;;;;5059861;28;20454;-93
2022/05/01 06:41:26;;;;;;;32.50;21.80;;;;;;;;;;5079930;28;20442;-95
2022/05/01 06:43:53;;;;;;;34.40;22.47;;;;;;;;;;5085700;28;20725;-91
2022/05/01 06:46:22;;;;;;;31.03;22.40;;;;;;;;;;5059257;28;20824;-93
2022/05/01 06:48:50;;;;;;;36.23;23.10;;;;;;;;;;5065351;28;20482;-94
2022/05/01 06:51:18;;;;;;;32.73;21.47;;;;;;;;;;5063166;28;20955;-93
2022/05/01 06:53:45;;;;;;;32.67;21.67;;;;;;;;;;5065476;28;20435;-93
2022/05/01 06:56:20;;;;;;;29.83;21.20;;;;;;;;;;5091130;22;20485;-94
2022/05/01 06:58:47;;;;;;;29.57;21.17;;;;;;;;;;5089536;28;20587;-92
2022/05/01 07:01:17;;;;;;;32.03;20.40;;;;;;;;;;5092254;22;20414;-93
2022/05/01 07:03:46;;;;;;;30.10;21.03;;;;;;;;;;5077353;28;20799;-93
2022/05/01 07:06:13;;;;;;;30.90;22.90;;;;;;;;;;5070881;28;20809;-96
2022/05/01 07:08:41;;;;;;;28.37;21.07;;;;;;;;;;5055232;28;20692;-93
2022/05/01 07:11:08;;;;;;;32.70;21.00;;;;;;;;;;5058066;28;20459;-93
2022/05/01 07:13:37;;;;;;;32.30;21.17;;;;;;;;;;5063517;28;20514;-95
2022/05/01 07:16:05;;;;;;;31.83;20.80;;;;;;;;;;5059993;28;20431;-92
2022/05/01 07:18:33;;;;;;;26.90;19.70;;;;;;;;;;5063716;28;20454;-92
2022/05/01 07:21:03;;;;;;;29.60;21.13;;;;;;;;;;5063448;28;20447;-91
2022/05/01 07:23:30;;;;;;;38.20;22.10;;;;;;;;;;5063039;28;20465;-92
2022/05/01 07:25:58;;;;;;;32.57;22.77;;;;;;;;;;5061983;28;20893;-95
2022/05/01 07:28:25;;;;;;;28.93;19.83;;;;;;;;;;5055418;28;20490;-91
2022/05/01 07:30:53;;;;;;;29.60;21.13;;;9.80;99.90;;;;;;5055124;28;20446;-93
2022/05/01 07:33:22;;;;;;;25.50;19.30;;;;;;;;;;5057446;28;20454;-90
2022/05/01 07:35:49;;;;;;;21.80;18.50;;;;;;;;;;5052064;28;20442;-93
2022/05/01 07:38:17;;;;;;;29.33;19.70;;;;;;;;;;5054799;28;20489;-90
2022/05/01 07:40:44;;;;;;;30.57;23.60;;;;;;;;;;5054301;28;20516;-90
2022/05/01 07:43:11;;;;;;;29.47;21.73;;;10.00;99.90;;;;;;5054407;28;20447;-90
2022/05/01 07:45:38;;;;;;;26.90;18.40;;;;;;;;;;5055162;28;20465;-93
2022/05/01 07:48:07;;;;;;;25.80;17.80;;;9.70;99.90;;;;;;5053771;28;20491;-90
2022/05/01 07:50:34;;;;;;;21.03;15.77;;;;;;;;;;5051693;28;20451;-92
2022/05/01 07:53:01;;;;;;;26.67;17.90;;;;;;;;;;5054696;28;20449;-90
2022/05/01 07:55:28;;;;;;;25.27;17.10;;;10.40;99.90;;;;;;5054728;28;20443;-85
2022/05/01 07:57:55;;;;;;;24.53;17.80;;;;;;;;;;5054302;28;20465;-89
2022/05/01 08:00:22;;;;;;;25.47;15.50;;;;;;;;;;5054662;28;20954;-92
2022/05/01 08:05:35;;;;;;;19.13;14.60;;;10.60;99.90;;;;;;5053528;28;20457;-89
2022/05/01 08:08:02;;;;;;;17.50;15.30;;;;;;;;;;5054207;28;20477;-89
2022/05/01 08:10:29;;;;;;;20.37;15.87;;;;;;;;;;5053976;28;20454;-91
2022/05/01 08:12:58;;;;;;;20.93;16.20;;;11.10;99.90;;;;;;5053763;28;20918;-88
2022/05/01 08:15:25;;;;;;;21.00;15.57;;;;;;;;;;5053550;28;20449;-90
2022/05/01 08:17:52;;;;;;;24.17;16.27;;;;;;;;;;5054898;28;20453;-90
2022/05/01 08:23:08;;;;;;;23.53;15.03;;;11.90;99.90;;;;;;5055962;28;20429;-89
2022/05/01 08:25:36;;;;;;;15.50;13.30;;;;;;;;;;5050577;28;20545;-89
2022/05/01 08:28:06;;;;;;;17.40;13.50;;;;;;;;;;5045672;28;20487;-92
2022/05/01 08:30:35;;;;;;;17.33;13.70;;;;;;;;;;5044591;28;20473;-91
2022/05/01 08:33:03;;;;;;;15.67;13.30;;;;;;;;;;5044476;28;20520;-91
2022/05/01 08:35:32;;;;;;;15.20;11.90;;;12.30;99.90;;;;;;5033961;28;20447;-93
2022/05/01 08:37:59;;;;;;;17.20;12.23;;;;;;;;;;5030445;28;20439;-89
2022/05/01 08:40:28;;;;;;;16.93;12.90;;;11.80;99.90;;;;;;5031591;28;21059;-89
2022/05/01 08:42:55;;;;;;;16.37;14.10;;;;;;;;;;5036963;28;20939;-89
2022/05/01 08:45:26;;;;;;;14.43;12.93;;;11.80;99.90;;;;;;5037006;28;20459;-89
2022/05/01 08:48:01;;;;;;;17.10;12.50;;;12.50;99.90;;;;;;5034193;28;20470;-90
2022/05/01 08:50:28;;;;;;;14.13;12.30;;;;;;;;;;5037345;28;20455;-89
2022/05/01 08:52:55;;;;;;;16.13;12.23;;;;;;;;;;5040395;28;20482;-90
2022/05/01 08:55:26;;;;;;;18.13;13.93;;;;;;;;;;5038557;28;20501;-89
2022/05/01 08:57:55;;;;;;;16.27;13.03;;;12.30;99.90;;;;;;5046823;28;20451;-91
2022/05/01 09:00:22;;;;;;;16.47;13.00;;;12.40;99.90;;;;;;5035640;28;20458;-95
2022/05/01 09:02:49;;;;;;;19.60;13.87;;;;;;;;;;5038362;28;20479;-90
2022/05/01 09:05:16;;;;;;;16.67;13.13;;;;;;;;;;5037233;28;20451;-94
2022/05/01 09:07:43;;;;;;;17.17;12.73;;;;;;;;;;5036772;28;20455;-91
2022/05/01 09:10:11;;;;;;;15.77;12.83;;;12.90;99.90;;;;;;5054883;28;20451;-90
2022/05/01 09:12:51;;;;;;;15.60;14.00;;;13.20;99.90;;;;;;5057763;28;20454;-91
2022/05/01 09:15:32;;;;;;;16.30;12.97;;;13.30;99.90;;;;;;5058636;28;20509;-90
2022/05/01 09:18:03;;;;;;;18.53;13.03;;;12.60;99.90;;;;;;5056194;28;20461;-90
2022/05/01 09:20:31;;;;;;;16.33;12.20;;;;;;;;;;5057427;28;20720;-94
2022/05/01 09:22:59;;;;;;;17.43;12.60;;;11.90;99.90;;;;;;5058393;28;20934;-91
2022/05/01 09:25:27;;;;;;;14.90;12.83;;;11.90;99.90;;;;;;5055099;28;20508;-88
2022/05/01 09:27:57;;;;;;;17.77;13.97;;;12.20;99.90;;;;;;5058804;28;20981;-90
2022/05/01 09:30:32;;;;;;;16.33;12.23;;;12.50;99.90;;;;;;5058559;28;20523;-91
2022/05/01 09:33:00;;;;;;;16.70;12.80;;;12.80;99.90;;;;;;5057673;28;20503;-91
2022/05/01 09:35:31;;;;;;;13.53;12.13;;;12.70;99.90;;;;;;5054847;28;20452;-90
2022/05/01 09:38:15;;;;;;;16.27;11.60;;;12.50;99.90;;;;;;5056842;28;20505;-88
2022/05/01 09:40:43;;;;;;;13.60;11.30;;;12.80;99.90;;;;;;5057349;28;20816;-88
2022/05/01 09:43:11;;;;;;;16.20;12.80;;;;;;;;;;5055727;28;20458;-89
2022/05/01 09:45:39;;;;;;;16.07;12.17;;;12.90;99.90;;;;;;5056040;28;20451;-89
2022/05/01 09:48:20;;;;;;;14.67;10.47;;;12.90;99.90;;;;;;5056736;28;20509;-87
2022/05/01 09:50:48;;;;;;;16.57;12.00;;;;;;;;;;5057128;28;20467;-88
2022/05/01 09:53:15;;;;;;;12.47;10.90;;;;;;;;;;5058774;28;20450;-89
2022/05/01 09:55:43;;;;;;;13.47;11.57;;;;;;;;;;5061261;28;20891;-89
2022/05/01 09:58:11;;;;;;;14.20;11.23;;;13.60;99.90;;;;;;5059804;28;20470;-88
2022/05/01 10:00:54;;;;;;;14.23;12.27;;;13.60;99.90;;;;;;5054898;28;20458;-88
2022/05/01 10:03:24;;;;;;;12.87;11.23;;;13.40;99.90;;;;;;5057635;28;20462;-88
2022/05/01 10:05:52;;;;;;;15.00;12.37;;;13.30;99.90;;;;;;5054627;28;20946;-91
2022/05/01 10:08:20;;;;;;;14.30;11.17;;;13.60;99.90;;;;;;5055721;28;20485;-93
2022/05/01 10:10:49;;;;;;;19.37;12.30;;;13.80;99.90;;;;;;5048826;28;20439;-90
2022/05/01 10:13:17;;;;;;;12.80;11.30;;;;;;;;;;5055837;28;20458;-90
2022/05/01 10:15:44;;;;;;;16.20;11.30;;;;;;;;;;5046075;28;20455;-89
2022/05/01 10:18:14;;;;;;;14.17;12.43;;;14.60;99.90;;;;;;5049373;28;20451;-88
2022/05/01 10:20:43;;;;;;;13.03;11.27;;;15.00;99.90;;;;;;5038055;28;20945;-90
2022/05/01 10:23:12;;;;;;;13.30;11.20;;;14.30;99.90;;;;;;5035841;28;20518;-88
2022/05/01 10:25:42;;;;;;;14.70;13.20;;;14.10;99.90;;;;;;5031687;28;20451;-88
2022/05/01 10:28:23;;;;;;;14.90;12.37;;;14.60;99.90;;;;;;5043505;28;20509;-91
2022/05/01 10:33:58;;;;;;;13.67;11.80;;;14.90;99.90;;;;;;5059526;28;20852;-92
2022/05/01 10:36:54;;;;;;;12.50;10.77;;;14.80;99.90;;;;;;5060093;28;20442;-92
2022/05/01 10:39:23;;;;;;;13.37;11.90;;;15.90;99.90;;;;;;5053544;28;20486;-90
2022/05/01 10:41:51;;;;;;;11.87;10.67;;;;;;;;;;5058214;28;20483;-90
2022/05/01 10:44:29;;;;;;;12.10;10.67;;;16.30;99.90;;;;;;5045885;28;20475;-93
2022/05/01 10:46:58;;;;;;;13.27;11.60;;;;;;;;;;5035535;28;20451;-92
2022/05/01 10:49:37;;;;;;;15.53;11.83;;;15.30;99.90;;;;;;5043014;28;20494;-92
2022/05/01 10:52:20;;;;;;;14.73;11.80;;;15.00;99.90;;;;;;5055217;28;20485;-89
2022/05/01 10:54:56;;;;;;;13.13;10.83;;;14.40;99.90;;;;;;5041970;28;20447;-89
2022/05/01 10:57:25;;;;;;;13.67;12.23;;;14.90;99.90;;;;;;5035116;28;20524;-90
2022/05/01 11:00:06;;;;;;;17.83;13.87;;;14.80;99.90;;;;;;5031366;28;20542;-89
2022/05/01 11:02:38;;;;;;;13.07;11.60;;;15.00;99.90;;;;;;5035728;28;20483;-90
2022/05/01 11:05:11;;;;;;;16.13;11.90;;;15.10;99.90;;;;;;5036298;28;20444;-88
2022/05/01 11:07:48;;;;;;;12.60;11.13;;;15.30;99.90;;;;;;5034769;28;20459;-90
2022/05/01 11:10:16;;;;;;;11.63;10.43;;;;;;;;;;5039969;28;20491;-91
2022/05/01 11:12:44;;;;;;;11.73;10.17;;;15.80;97.80;;;;;;5036284;28;20471;-91
2022/05/01 11:15:11;;;;;;;11.63;10.30;;;16.30;99.90;;;;;;5033531;28;20460;-91
2022/05/01 11:17:57;;;;;;;14.00;11.20;;;16.80;99.90;;;;;;5036176;28;20444;-93
2022/05/01 11:20:35;;;;;;;11.07;9.90;;;17.00;99.90;;;;;;5037310;28;20459;-94
2022/05/01 11:23:28;;;;;;;11.43;10.30;;;17.20;98.90;;;;;;5031208;28;20516;-91
2022/05/01 11:26:10;;;;;;;10.90;9.80;;;16.30;99.90;;;;;;5019607;28;20467;-93
2022/05/01 11:28:57;;;;;;;12.20;10.57;;;16.10;99.90;;;;;;5036459;28;20483;-91
2022/05/01 11:31:45;;;;;;;12.80;10.60;;;15.60;99.90;;;;;;5032725;28;20816;-92
2022/05/01 11:34:39;;;;;;;11.47;10.40;;;16.10;99.90;;;;;;5040990;28;20451;-90
2022/05/01 11:37:09;;;;;;;12.07;9.67;;;16.20;99.90;;;;;;4989716;28;20463;-90
2022/05/01 11:40:22;;;;;;;13.93;10.60;;;15.50;99.90;;;;;;5034257;28;20451;-92
2022/05/01 11:42:52;;;;;;;12.27;10.43;;;16.10;99.90;;;;;;5038090;28;20510;-90
2022/05/01 11:45:20;;;;;;;11.80;10.50;;;;;;;;;;5040203;28;20430;-92
2022/05/01 11:47:51;;;;;;;11.57;9.80;;;16.20;99.90;;;;;;5042882;28;20443;-91
2022/05/01 11:50:21;;;;;;;11.10;9.27;;;16.60;98.10;;;;;;5040371;28;20553;-90
2022/05/01 11:52:51;;;;;;;11.43;9.80;;;17.00;99.90;;;;;;5040722;28;20478;-87
2022/05/01 12:02:24;;;;;;;11.10;9.03;;;17.90;99.90;;;;;;5040525;28;20455;-88
2022/05/01 12:03:39;;;;;;;11.40;9.90;;;;;;;;;;5035606;28;20938;-93
2022/05/01 12:06:07;;;;;;;13.20;10.20;;;;;;;;;;5032591;28;20447;-89
2022/05/01 12:08:49;;;;;;;11.40;9.87;;;16.90;99.90;;;;;;5036221;28;20451;-91
2022/05/01 12:11:31;;;;;;;11.77;10.27;;;15.80;95.20;;;;;;5036553;28;20459;-89
2022/05/01 12:14:03;;;;;;;10.63;9.23;;;16.30;99.90;;;;;;5038602;28;20446;-91
2022/05/01 12:16:31;;;;;;;10.03;9.03;;;;;;;;;;5060632;28;20450;-93
2022/05/01 12:18:58;;;;;;;9.70;8.70;;;;;;;;;;5053662;28;20985;-92
2022/05/01 12:21:33;;;;;;;10.00;8.47;;;16.30;96.20;;;;;;5056434;28;20457;-89
2022/05/01 12:24:09;;;;;;;10.83;8.40;;;16.10;99.90;;;;;;5055309;28;20779;-93
2022/05/01 12:26:38;;;;;;;9.73;8.73;;;15.80;97.60;;;;;;5045485;28;20439;-91
2022/05/01 12:29:09;;;;;;;11.10;9.20;;;16.00;99.90;;;;;;5040162;28;20481;-93
2022/05/01 12:32:09;;;;;;;9.33;7.93;;;16.00;99.90;;;;;;5046536;28;20449;-90
2022/05/01 12:34:38;;;;;;;11.10;8.83;;;15.80;99.90;;;;;;5052312;28;20457;-90
2022/05/01 12:37:12;;;;;;;11.27;9.33;;;15.30;99.90;;;;;;5057651;28;20454;-91
2022/05/01 12:39:41;;;;;;;9.53;8.53;;;15.90;99.90;;;;;;5054288;28;20446;-88
2022/05/01 12:45:20;;;;;;;9.83;8.80;;;15.70;95.70;;;;;;5058365;28;20437;-89
2022/05/01 12:47:48;;;;;;;9.10;7.87;;;15.90;95.40;;;;;;5039569;28;21099;-91
2022/05/01 12:50:27;;;;;;;9.60;8.70;;;15.80;94.70;;;;;;5054038;28;20490;-91
2022/05/01 12:52:58;;;;;;;10.33;8.80;;;15.80;99.90;;;;;;5059029;28;20470;-90
2022/05/01 12:55:32;;;;;;;9.97;8.93;;;16.00;99.90;;;;;;5058057;28;20504;-89
2022/05/01 12:58:00;;;;;;;12.30;9.90;;;;;;;;;;5058212;28;20438;-90
2022/05/01 13:00:35;;;;;;;11.73;8.53;;;15.20;99.90;;;;;;5058266;28;20461;-89
2022/05/01 13:03:24;;;;;;;10.50;9.20;;;15.60;99.90;;;;;;5058242;28;20478;-89
2022/05/01 13:06:07;;;;;;;9.93;8.90;;;15.50;99.90;;;;;;5056722;28;20462;-88
2022/05/01 13:08:35;;;;;;;10.47;9.00;;;15.50;95.00;;;;;;5052140;28;20482;-88
2022/05/01 13:11:15;;;;;;;9.27;8.33;;;15.90;99.90;;;;;;5043727;28;20498;-94
2022/05/01 13:13:46;;;;;;;10.10;7.83;;;15.90;95.40;;;;;;5044577;28;20457;-88
2022/05/01 13:16:15;;;;;;;13.50;11.93;;;16.30;99.90;;;;;;5057602;28;20442;-90
2022/05/01 13:18:42;;;;;;;13.90;11.70;;;;;;;;;;5052604;28;20454;-89
2022/05/01 13:21:10;;;;;;;12.43;11.13;;;;;;;;;;5054063;28;20455;-89
2022/05/01 13:23:37;;;;;;;12.73;9.47;;;;;;;;;;5057659;28;20493;-88
2022/05/01 13:26:04;;;;;;;10.47;8.77;;;17.70;99.90;;;;;;5058113;28;20858;-93
2022/05/01 13:28:34;;;;;;;11.90;10.10;;;;;;;;;;5058540;28;20439;-89
2022/05/01 13:31:01;;;;;;;10.63;9.53;;;;;;;;;;5058104;28;20901;-90
2022/05/01 13:33:29;;;;;;;10.17;8.50;;;;;;;;;;5057632;28;20447;-93
2022/05/01 13:35:59;;;;;;;10.37;9.37;;;;;;;;;;5047529;28;20482;-89
2022/05/01 13:38:27;;;;;;;9.73;8.80;;;;;;;;;;5039836;28;20489;-92
2022/05/01 13:46:34;;;;;;;9.80;8.47;;;;;;;;;;5038025;28;20834;-89
2022/05/01 13:49:02;;;;;;;10.20;9.00;;;;;;;;;;5042439;28;20458;-90
2022/05/01 13:51:29;;;;;;;10.40;9.33;;;;;;;;;;5038636;28;20461;-94
2022/05/01 13:53:56;;;;;;;10.60;8.30;;;;;;;;;;5040234;28;20440;-92
2022/05/01 13:56:25;;;;;;;9.20;8.30;;;;;;;;;;5035659;28;20439;-90
2022/05/01 13:58:54;;;;;;;9.70;8.50;;;19.00;92.50;;;;;;5039381;28;20454;-90
2022/05/01 14:01:21;;;;;;;8.47;7.60;;;;;;;;;;5038938;28;20510;-92
2022/05/01 14:03:48;;;;;;;9.37;7.00;;;19.20;92.60;;;;;;5040029;28;20443;-96
2022/05/01 14:06:16;;;;;;;9.87;8.07;;;;;;;;;;5042497;28;20459;-93
2022/05/01 14:08:43;;;;;;;13.00;8.47;;;;;;;;;;5041443;28;20459;-93
2022/05/01 14:11:10;;;;;;;8.73;7.83;;;;;;;;;;5037435;28;20486;-91
2022/05/01 14:13:38;;;;;;;8.67;7.73;;;;;;;;;;5039372;28;20451;-88
2022/05/01 14:16:06;;;;;;;9.33;7.83;;;16.60;92.90;;;;;;5038930;28;20506;-90
2022/05/01 14:18:36;;;;;;;8.80;7.90;;;16.80;92.90;;;;;;5037821;28;20951;-90
2022/05/01 14:21:04;;;;;;;9.97;8.20;;;16.60;93.50;;;;;;5032722;28;20530;-91
2022/05/01 14:23:33;;;;;;;9.17;8.27;;;16.50;95.00;;;;;;5033193;28;20455;-91
2022/05/01 14:26:01;;;;;;;8.43;7.50;;;;;;;;;;5029995;28;20444;-90
2022/05/01 14:28:28;;;;;;;8.47;7.63;;;;;;;;;;5037185;28;20444;-92